sensor_id;sensor_type;location;lat;lon;timestamp;pressure;altitude;pressure_sealevel;temperature;humidity
21803;BME280;18591;47.080;22.214;2022-08-06T00:00:46;99244.75;;;26.27;38.44
21803;BME280;18591;47.080;22.214;2022-08-06T00:02:50;99244.03;;;26.25;37.80
21803;BME280;18591;47.080;22.214;2022-08-06T00:04:52;99245.94;;;26.24;38.22
21803;BME280;18591;47.080;22.214;2022-08-06T00:06:54;99248.34;;;26.27;38.06
21803;BME280;18591;47.080;22.214;2022-08-06T00:08:56;99244.34;;;26.14;38.22
21803;BME280;18591;47.080;22.214;2022-08-06T00:10:58;99241.56;;;26.05;38.50
21803;BME280;18591;47.080;22.214;2022-08-06T00:13:00;99233.84;;;26.09;38.58
21803;BME280;18591;47.080;22.214;2022-08-06T00:15:07;99239.19;;;26.11;38.84
21803;BME280;18591;47.080;22.214;2022-08-06T00:17:14;99243.28;;;26.06;38.48
21803;BME280;18591;47.080;22.214;2022-08-06T00:19:16;99240.38;;;26.08;38.27
21803;BME280;18591;47.080;22.214;2022-08-06T00:21:20;99244.31;;;26.05;38.42
21803;BME280;18591;47.080;22.214;2022-08-06T00:23:42;99246.22;;;26.05;38.42
21803;BME280;18591;47.080;22.214;2022-08-06T00:25:56;99242.75;;;26.03;38.57
21803;BME280;18591;47.080;22.214;2022-08-06T00:27:58;99243.09;;;26.00;38.42
21803;BME280;18591;47.080;22.214;2022-08-06T00:30:00;99241.22;;;26.00;38.39
21803;BME280;18591;47.080;22.214;2022-08-06T00:32:06;99241.69;;;25.96;38.51
21803;BME280;18591;47.080;22.214;2022-08-06T00:34:12;99246.34;;;25.95;38.25
21803;BME280;18591;47.080;22.214;2022-08-06T00:36:18;99244.78;;;25.93;38.58
21803;BME280;18591;47.080;22.214;2022-08-06T00:38:28;99242.03;;;25.93;38.88
21803;BME280;18591;47.080;22.214;2022-08-06T00:40:30;99247.50;;;25.84;39.03
21803;BME280;18591;47.080;22.214;2022-08-06T00:42:33;99251.97;;;25.85;38.70
21803;BME280;18591;47.080;22.214;2022-08-06T00:44:36;99246.47;;;25.85;38.85
21803;BME280;18591;47.080;22.214;2022-08-06T00:46:38;99240.69;;;25.79;38.73
21803;BME280;18591;47.080;22.214;2022-08-06T00:48:40;99244.63;;;25.76;38.95
21803;BME280;18591;47.080;22.214;2022-08-06T00:50:54;99239.47;;;25.73;38.99
21803;BME280;18591;47.080;22.214;2022-08-06T00:52:56;99236.53;;;25.67;39.47
21803;BME280;18591;47.080;22.214;2022-08-06T00:54:58;99242.88;;;25.67;39.05
21803;BME280;18591;47.080;22.214;2022-08-06T00:57:01;99241.47;;;25.63;38.90
21803;BME280;18591;47.080;22.214;2022-08-06T00:59:08;99248.00;;;25.62;39.00
21803;BME280;18591;47.080;22.214;2022-08-06T01:01:11;99240.09;;;25.59;39.26
21803;BME280;18591;47.080;22.214;2022-08-06T01:03:18;99245.88;;;25.56;39.60
21803;BME280;18591;47.080;22.214;2022-08-06T01:05:40;99247.41;;;25.50;39.45
21803;BME280;18591;47.080;22.214;2022-08-06T01:08:02;99250.16;;;25.50;39.74
21803;BME280;18591;47.080;22.214;2022-08-06T01:10:05;99249.16;;;25.51;39.30
21803;BME280;18591;47.080;22.214;2022-08-06T01:12:07;99245.84;;;25.48;39.64
21803;BME280;18591;47.080;22.214;2022-08-06T01:14:11;99239.63;;;25.46;39.36
21803;BME280;18591;47.080;22.214;2022-08-06T01:16:57;99243.38;;;25.36;39.43
21803;BME280;18591;47.080;22.214;2022-08-06T01:19:22;99241.41;;;25.29;40.00
21803;BME280;18591;47.080;22.214;2022-08-06T01:29:48;99243.31;;;25.10;40.51
21803;BME280;18591;47.080;22.214;2022-08-06T01:32:11;99238.97;;;25.08;40.67
21803;BME280;18591;47.080;22.214;2022-08-06T01:34:20;99241.16;;;25.04;40.43
21803;BME280;18591;47.080;22.214;2022-08-06T01:36:41;99240.63;;;25.01;40.74
21803;BME280;18591;47.080;22.214;2022-08-06T01:38:51;99233.38;;;24.99;40.57
21803;BME280;18591;47.080;22.214;2022-08-06T01:41:05;99245.41;;;24.98;40.55
21803;BME280;18591;47.080;22.214;2022-08-06T01:43:11;99242.44;;;24.92;40.76
21803;BME280;18591;47.080;22.214;2022-08-06T01:45:36;99238.81;;;24.91;40.34
21803;BME280;18591;47.080;22.214;2022-08-06T01:48:02;99251.63;;;24.83;41.15
21803;BME280;18591;47.080;22.214;2022-08-06T01:50:06;99238.44;;;24.86;40.78
21803;BME280;18591;47.080;22.214;2022-08-06T01:52:17;99247.69;;;24.85;40.79
21803;BME280;18591;47.080;22.214;2022-08-06T01:54:36;99247.84;;;24.84;41.04
21803;BME280;18591;47.080;22.214;2022-08-06T01:56:41;99246.84;;;24.85;40.77
21803;BME280;18591;47.080;22.214;2022-08-06T01:58:59;99239.22;;;24.78;40.89
21803;BME280;18591;47.080;22.214;2022-08-06T02:01:12;99240.56;;;24.74;40.74
21803;BME280;18591;47.080;22.214;2022-08-06T02:03:19;99247.38;;;24.70;41.14
21803;BME280;18591;47.080;22.214;2022-08-06T02:05:24;99245.66;;;24.69;40.77
21803;BME280;18591;47.080;22.214;2022-08-06T02:07:35;99243.53;;;24.63;41.14
21803;BME280;18591;47.080;22.214;2022-08-06T02:09:59;99238.19;;;24.62;41.04
21803;BME280;18591;47.080;22.214;2022-08-06T02:12:06;99242.97;;;24.60;41.27
21803;BME280;18591;47.080;22.214;2022-08-06T02:14:13;99237.94;;;24.55;41.52
21803;BME280;18591;47.080;22.214;2022-08-06T02:16:20;99241.41;;;24.57;41.42
21803;BME280;18591;47.080;22.214;2022-08-06T02:18:30;99234.50;;;24.53;42.04
21803;BME280;18591;47.080;22.214;2022-08-06T02:20:41;99234.69;;;24.42;42.02
21803;BME280;18591;47.080;22.214;2022-08-06T02:22:55;99231.94;;;24.42;41.70
21803;BME280;18591;47.080;22.214;2022-08-06T02:25:03;99237.56;;;24.40;42.69
21803;BME280;18591;47.080;22.214;2022-08-06T02:27:31;99229.19;;;24.42;41.72
21803;BME280;18591;47.080;22.214;2022-08-06T02:29:54;99229.91;;;24.44;41.63
21803;BME280;18591;47.080;22.214;2022-08-06T02:32:08;99231.22;;;24.40;41.85
21803;BME280;18591;47.080;22.214;2022-08-06T02:34:17;99231.09;;;24.41;41.78
21803;BME280;18591;47.080;22.214;2022-08-06T02:36:45;99225.66;;;24.31;42.73
21803;BME280;18591;47.080;22.214;2022-08-06T02:41:20;99225.78;;;24.30;42.53
21803;BME280;18591;47.080;22.214;2022-08-06T02:43:34;99234.91;;;24.30;42.17
21803;BME280;18591;47.080;22.214;2022-08-06T02:45:48;99238.66;;;24.29;42.41
21803;BME280;18591;47.080;22.214;2022-08-06T02:48:12;99238.34;;;24.32;41.78
21803;BME280;18591;47.080;22.214;2022-08-06T02:50:38;99239.81;;;24.27;41.99
21803;BME280;18591;47.080;22.214;2022-08-06T02:52:44;99241.84;;;24.25;42.49
21803;BME280;18591;47.080;22.214;2022-08-06T02:55:05;99233.78;;;24.23;42.59
21803;BME280;18591;47.080;22.214;2022-08-06T02:57:12;99234.78;;;24.22;42.87
21803;BME280;18591;47.080;22.214;2022-08-06T02:59:27;99238.56;;;24.21;42.54
21803;BME280;18591;47.080;22.214;2022-08-06T03:01:43;99244.91;;;24.22;41.91
21803;BME280;18591;47.080;22.214;2022-08-06T03:03:48;99243.50;;;24.18;42.73
21803;BME280;18591;47.080;22.214;2022-08-06T03:06:00;99245.94;;;24.21;42.50
21803;BME280;18591;47.080;22.214;2022-08-06T03:08:05;99238.03;;;24.18;42.57
21803;BME280;18591;47.080;22.214;2022-08-06T03:10:11;99243.97;;;24.13;42.78
21803;BME280;18591;47.080;22.214;2022-08-06T03:12:15;99239.47;;;24.12;42.54
21803;BME280;18591;47.080;22.214;2022-08-06T03:14:32;99235.31;;;24.08;42.78
21803;BME280;18591;47.080;22.214;2022-08-06T03:16:56;99239.53;;;24.02;42.64
21803;BME280;18591;47.080;22.214;2022-08-06T03:19:02;99238.53;;;24.03;42.91
21803;BME280;18591;47.080;22.214;2022-08-06T03:21:24;99243.19;;;23.93;42.67
21803;BME280;18591;47.080;22.214;2022-08-06T03:23:36;99240.44;;;23.93;42.77
21803;BME280;18591;47.080;22.214;2022-08-06T03:25:40;99239.59;;;23.93;42.86
21803;BME280;18591;47.080;22.214;2022-08-06T03:27:44;99237.16;;;23.89;42.84
21803;BME280;18591;47.080;22.214;2022-08-06T03:29:48;99237.28;;;23.88;42.81
21803;BME280;18591;47.080;22.214;2022-08-06T03:31:59;99238.31;;;23.87;43.19
21803;BME280;18591;47.080;22.214;2022-08-06T03:34:22;99227.47;;;23.85;43.23
21803;BME280;18591;47.080;22.214;2022-08-06T03:36:26;99235.41;;;23.88;42.91
21803;BME280;18591;47.080;22.214;2022-08-06T03:38:37;99237.63;;;23.75;43.58
21803;BME280;18591;47.080;22.214;2022-08-06T03:40:43;99240.22;;;23.77;43.63
21803;BME280;18591;47.080;22.214;2022-08-06T03:42:49;99230.97;;;23.78;43.62
21803;BME280;18591;47.080;22.214;2022-08-06T03:44:53;99230.97;;;23.78;44.16
21803;BME280;18591;47.080;22.214;2022-08-06T03:47:03;99242.09;;;23.76;44.60
21803;BME280;18591;47.080;22.214;2022-08-06T03:49:13;99238.19;;;23.79;43.96
21803;BME280;18591;47.080;22.214;2022-08-06T03:51:27;99232.41;;;23.82;43.82
21803;BME280;18591;47.080;22.214;2022-08-06T03:53:51;99243.38;;;23.82;43.47
21803;BME280;18591;47.080;22.214;2022-08-06T03:55:59;99245.09;;;23.83;44.14
21803;BME280;18591;47.080;22.214;2022-08-06T03:58:06;99244.97;;;23.84;44.02
21803;BME280;18591;47.080;22.214;2022-08-06T04:00:09;99251.44;;;23.83;44.31
21803;BME280;18591;47.080;22.214;2022-08-06T04:02:14;99246.69;;;23.85;44.27
21803;BME280;18591;47.080;22.214;2022-08-06T04:04:37;99258.72;;;23.75;44.60
21803;BME280;18591;47.080;22.214;2022-08-06T04:06:39;99248.72;;;23.74;44.25
21803;BME280;18591;47.080;22.214;2022-08-06T04:08:44;99250.16;;;23.68;44.87
21803;BME280;18591;47.080;22.214;2022-08-06T04:10:48;99252.06;;;23.77;44.29
21803;BME280;18591;47.080;22.214;2022-08-06T04:12:59;99251.00;;;23.88;44.45
21803;BME280;18591;47.080;22.214;2022-08-06T04:15:21;99254.78;;;23.87;44.65
21803;BME280;18591;47.080;22.214;2022-08-06T04:17:24;99253.31;;;23.93;44.31
21803;BME280;18591;47.080;22.214;2022-08-06T04:19:33;99257.22;;;23.90;45.02
21803;BME280;18591;47.080;22.214;2022-08-06T04:21:45;99253.72;;;23.98;44.82
21803;BME280;18591;47.080;22.214;2022-08-06T04:24:07;99247.91;;;24.01;44.75
21803;BME280;18591;47.080;22.214;2022-08-06T04:26:13;99253.94;;;24.04;44.91
21803;BME280;18591;47.080;22.214;2022-08-06T04:28:18;99258.59;;;24.04;44.74
21803;BME280;18591;47.080;22.214;2022-08-06T04:30:24;99257.72;;;24.03;44.75
21803;BME280;18591;47.080;22.214;2022-08-06T04:32:28;99253.50;;;24.09;44.85
21803;BME280;18591;47.080;22.214;2022-08-06T04:34:34;99255.94;;;24.12;45.11
21803;BME280;18591;47.080;22.214;2022-08-06T04:36:59;99257.38;;;24.16;45.15
21803;BME280;18591;47.080;22.214;2022-08-06T04:39:06;99254.91;;;24.23;44.67
21803;BME280;18591;47.080;22.214;2022-08-06T04:41:15;99251.13;;;24.24;44.92
21803;BME280;18591;47.080;22.214;2022-08-06T04:43:18;99255.31;;;24.28;45.06
21803;BME280;18591;47.080;22.214;2022-08-06T04:45:21;99251.06;;;24.33;45.03
21803;BME280;18591;47.080;22.214;2022-08-06T04:47:43;99255.63;;;24.43;45.14
21803;BME280;18591;47.080;22.214;2022-08-06T04:49:48;99260.56;;;24.49;45.08
21803;BME280;18591;47.080;22.214;2022-08-06T04:52:03;99249.72;;;24.38;46.25
21803;BME280;18591;47.080;22.214;2022-08-06T04:54:25;99257.38;;;24.44;45.75
21803;BME280;18591;47.080;22.214;2022-08-06T04:56:30;99259.16;;;24.63;45.32
21803;BME280;18591;47.080;22.214;2022-08-06T04:58:38;99254.75;;;24.70;45.68
21803;BME280;18591;47.080;22.214;2022-08-06T05:00:43;99250.53;;;24.75;45.75
21803;BME280;18591;47.080;22.214;2022-08-06T05:03:05;99259.09;;;24.90;45.34
21803;BME280;18591;47.080;22.214;2022-08-06T05:05:12;99264.00;;;25.05;45.25
21803;BME280;18591;47.080;22.214;2022-08-06T05:07:20;99256.44;;;25.16;45.55
21803;BME280;18591;47.080;22.214;2022-08-06T05:09:27;99257.19;;;25.27;44.86
21803;BME280;18591;47.080;22.214;2022-08-06T05:11:47;99251.44;;;25.38;45.16
21803;BME280;18591;47.080;22.214;2022-08-06T05:14:13;99253.38;;;25.46;45.17
21803;BME280;18591;47.080;22.214;2022-08-06T05:16:18;99254.50;;;25.61;44.54
21803;BME280;18591;47.080;22.214;2022-08-06T05:18:30;99258.34;;;25.68;44.62
21803;BME280;18591;47.080;22.214;2022-08-06T05:20:55;99246.19;;;25.79;44.61
21803;BME280;18591;47.080;22.214;2022-08-06T05:23:03;99253.53;;;25.88;44.16
21803;BME280;18591;47.080;22.214;2022-08-06T05:25:20;99253.28;;;26.08;44.16
21803;BME280;18591;47.080;22.214;2022-08-06T05:27:28;99254.06;;;26.26;43.92
21803;BME280;18591;47.080;22.214;2022-08-06T05:29:50;99260.13;;;26.46;43.47
21803;BME280;18591;47.080;22.214;2022-08-06T05:31:59;99256.75;;;26.60;43.13
21803;BME280;18591;47.080;22.214;2022-08-06T05:34:04;99254.22;;;26.75;42.97
21803;BME280;18591;47.080;22.214;2022-08-06T05:36:09;99249.75;;;26.90;42.92
21803;BME280;18591;47.080;22.214;2022-08-06T05:38:20;99254.94;;;27.02;42.84
21803;BME280;18591;47.080;22.214;2022-08-06T05:40:32;99257.34;;;27.05;42.57
21803;BME280;18591;47.080;22.214;2022-08-06T05:42:57;99259.81;;;27.24;42.47
21803;BME280;18591;47.080;22.214;2022-08-06T05:45:01;99267.91;;;27.42;42.26
21803;BME280;18591;47.080;22.214;2022-08-06T05:47:13;99262.72;;;27.55;41.92
21803;BME280;18591;47.080;22.214;2022-08-06T05:49:51;99258.38;;;27.69;41.88
21803;BME280;18591;47.080;22.214;2022-08-06T05:52:13;99255.09;;;27.82;41.64
21803;BME280;18591;47.080;22.214;2022-08-06T05:54:27;99266.97;;;27.99;41.09
21803;BME280;18591;47.080;22.214;2022-08-06T05:56:35;99271.75;;;28.13;41.03
21803;BME280;18591;47.080;22.214;2022-08-06T05:58:50;99266.31;;;28.28;40.43
21803;BME280;18591;47.080;22.214;2022-08-06T06:00:58;99264.53;;;28.43;40.56
21803;BME280;18591;47.080;22.214;2022-08-06T06:03:04;99265.53;;;28.59;40.30
21803;BME280;18591;47.080;22.214;2022-08-06T06:05:08;99267.34;;;28.75;40.83
21803;BME280;18591;47.080;22.214;2022-08-06T06:07:30;99266.72;;;28.87;41.15
21803;BME280;18591;47.080;22.214;2022-08-06T06:09:53;99266.63;;;29.04;41.48
21803;BME280;18591;47.080;22.214;2022-08-06T06:12:05;99258.13;;;29.14;41.72
21803;BME280;18591;47.080;22.214;2022-08-06T06:16:51;99260.56;;;29.32;42.60
21803;BME280;18591;47.080;22.214;2022-08-06T06:30:59;99262.09;;;29.72;43.35
21803;BME280;18591;47.080;22.214;2022-08-06T06:35:58;99256.59;;;29.87;42.64
21803;BME280;18591;47.080;22.214;2022-08-06T06:42:58;99254.28;;;30.20;42.24
21803;BME280;18591;47.080;22.214;2022-08-06T06:45:30;99257.25;;;30.18;42.48
21803;BME280;18591;47.080;22.214;2022-08-06T06:48:02;99263.09;;;30.24;42.08
21803;BME280;18591;47.080;22.214;2022-08-06T06:50:13;99261.00;;;30.41;41.22
21803;BME280;18591;47.080;22.214;2022-08-06T06:52:28;99259.84;;;30.50;41.21
21803;BME280;18591;47.080;22.214;2022-08-06T06:54:44;99269.00;;;30.65;40.61
21803;BME280;18591;47.080;22.214;2022-08-06T06:57:09;99275.94;;;30.76;40.41
21803;BME280;18591;47.080;22.214;2022-08-06T06:59:19;99268.47;;;30.91;39.81
21803;BME280;18591;47.080;22.214;2022-08-06T07:01:28;99263.13;;;31.11;39.69
21803;BME280;18591;47.080;22.214;2022-08-06T07:03:34;99261.34;;;31.25;39.44
21803;BME280;18591;47.080;22.214;2022-08-06T07:05:46;99271.25;;;31.34;38.93
21803;BME280;18591;47.080;22.214;2022-08-06T07:08:07;99260.47;;;31.46;38.89
21803;BME280;18591;47.080;22.214;2022-08-06T07:10:12;99261.41;;;31.53;38.75
21803;BME280;18591;47.080;22.214;2022-08-06T07:12:19;99260.19;;;31.62;38.47
21803;BME280;18591;47.080;22.214;2022-08-06T07:14:22;99264.34;;;31.73;38.21
21803;BME280;18591;47.080;22.214;2022-08-06T07:16:26;99265.22;;;31.80;37.84
21803;BME280;18591;47.080;22.214;2022-08-06T07:18:37;99262.75;;;31.92;37.66
21803;BME280;18591;47.080;22.214;2022-08-06T07:20:50;99261.16;;;32.04;37.86
21803;BME280;18591;47.080;22.214;2022-08-06T07:22:59;99273.44;;;32.17;37.22
21803;BME280;18591;47.080;22.214;2022-08-06T07:25:22;99273.28;;;32.31;37.82
21803;BME280;18591;47.080;22.214;2022-08-06T07:27:32;99266.25;;;32.36;36.53
21803;BME280;18591;47.080;22.214;2022-08-06T07:29:45;99264.00;;;32.52;37.08
21803;BME280;18591;47.080;22.214;2022-08-06T07:32:01;99263.84;;;32.67;37.06
21803;BME280;18591;47.080;22.214;2022-08-06T07:34:06;99261.75;;;32.83;36.89
21803;BME280;18591;47.080;22.214;2022-08-06T07:36:14;99268.41;;;32.95;36.73
21803;BME280;18591;47.080;22.214;2022-08-06T07:38:18;99271.88;;;33.04;36.68
21803;BME280;18591;47.080;22.214;2022-08-06T07:42:31;99267.41;;;33.16;36.57
21803;BME280;18591;47.080;22.214;2022-08-06T07:44:39;99270.44;;;33.28;35.70
21803;BME280;18591;47.080;22.214;2022-08-06T07:47:01;99261.22;;;33.47;34.36
21803;BME280;18591;47.080;22.214;2022-08-06T07:49:26;99263.41;;;33.65;34.05
21803;BME280;18591;47.080;22.214;2022-08-06T07:51:52;99255.28;;;33.83;32.85
21803;BME280;18591;47.080;22.214;2022-08-06T07:53:57;99251.19;;;33.86;31.70
21803;BME280;18591;47.080;22.214;2022-08-06T07:56:09;99266.16;;;33.98;31.16
21803;BME280;18591;47.080;22.214;2022-08-06T07:58:12;99264.91;;;34.08;31.22
21803;BME280;18591;47.080;22.214;2022-08-06T08:00:17;99256.69;;;34.19;30.07
21803;BME280;18591;47.080;22.214;2022-08-06T08:02:19;99260.31;;;34.33;31.01
21803;BME280;18591;47.080;22.214;2022-08-06T08:04:31;99258.56;;;34.45;29.75
21803;BME280;18591;47.080;22.214;2022-08-06T08:06:55;99262.19;;;34.59;30.37
21803;BME280;18591;47.080;22.214;2022-08-06T08:09:06;99259.56;;;34.71;29.34
21803;BME280;18591;47.080;22.214;2022-08-06T08:11:13;99262.09;;;34.79;28.61
21803;BME280;18591;47.080;22.214;2022-08-06T08:13:17;99264.16;;;34.90;29.36
21803;BME280;18591;47.080;22.214;2022-08-06T08:15:40;99262.84;;;35.00;29.22
21803;BME280;18591;47.080;22.214;2022-08-06T08:17:44;99264.72;;;35.06;28.89
21803;BME280;18591;47.080;22.214;2022-08-06T08:20:06;99264.06;;;35.10;27.52
21803;BME280;18591;47.080;22.214;2022-08-06T08:22:20;99266.59;;;35.19;27.28
21803;BME280;18591;47.080;22.214;2022-08-06T08:24:26;99268.44;;;35.31;28.44
21803;BME280;18591;47.080;22.214;2022-08-06T08:26:30;99273.91;;;35.45;28.45
21803;BME280;18591;47.080;22.214;2022-08-06T08:28:52;99279.22;;;35.53;27.14
21803;BME280;18591;47.080;22.214;2022-08-06T08:30:54;99279.59;;;35.63;27.63
21803;BME280;18591;47.080;22.214;2022-08-06T08:33:11;99273.97;;;35.70;27.80
21803;BME280;18591;47.080;22.214;2022-08-06T08:35:19;99279.25;;;35.78;27.92
21803;BME280;18591;47.080;22.214;2022-08-06T08:37:23;99281.75;;;35.86;27.79
21803;BME280;18591;47.080;22.214;2022-08-06T08:39:25;99288.13;;;35.93;27.03
21803;BME280;18591;47.080;22.214;2022-08-06T08:41:43;99288.78;;;35.95;26.16
21803;BME280;18591;47.080;22.214;2022-08-06T08:44:00;99289.56;;;36.03;26.37
21803;BME280;18591;47.080;22.214;2022-08-06T08:46:07;99283.97;;;36.03;25.80
21803;BME280;18591;47.080;22.214;2022-08-06T08:48:11;99285.47;;;36.05;26.39
21803;BME280;18591;47.080;22.214;2022-08-06T08:50:18;99283.94;;;36.09;25.90
21803;BME280;18591;47.080;22.214;2022-08-06T08:52:26;99291.16;;;36.17;26.43
21803;BME280;18591;47.080;22.214;2022-08-06T08:54:35;99282.56;;;36.18;25.99
21803;BME280;18591;47.080;22.214;2022-08-06T08:56:40;99280.75;;;36.24;25.96
21803;BME280;18591;47.080;22.214;2022-08-06T08:59:03;99285.88;;;36.27;26.35
21803;BME280;18591;47.080;22.214;2022-08-06T09:01:25;99290.09;;;36.36;26.28
21803;BME280;18591;47.080;22.214;2022-08-06T09:03:48;99294.53;;;36.44;25.33
21803;BME280;18591;47.080;22.214;2022-08-06T09:05:52;99295.47;;;36.38;25.37
21803;BME280;18591;47.080;22.214;2022-08-06T09:07:56;99297.78;;;36.41;25.29
21803;BME280;18591;47.080;22.214;2022-08-06T09:10:04;99298.16;;;36.45;25.66
21803;BME280;18591;47.080;22.214;2022-08-06T09:12:06;99294.31;;;36.46;24.96
21803;BME280;18591;47.080;22.214;2022-08-06T09:14:29;99289.47;;;36.53;25.01
21803;BME280;18591;47.080;22.214;2022-08-06T09:16:35;99289.66;;;36.58;25.35
21803;BME280;18591;47.080;22.214;2022-08-06T09:18:37;99295.53;;;36.68;25.51
21803;BME280;18591;47.080;22.214;2022-08-06T09:20:39;99297.16;;;36.76;24.72
21803;BME280;18591;47.080;22.214;2022-08-06T09:22:46;99293.03;;;36.78;25.28
21803;BME280;18591;47.080;22.214;2022-08-06T09:24:52;99284.31;;;36.87;25.01
21803;BME280;18591;47.080;22.214;2022-08-06T09:27:02;99294.44;;;36.88;24.16
21803;BME280;18591;47.080;22.214;2022-08-06T09:29:25;99298.38;;;36.98;24.52
21803;BME280;18591;47.080;22.214;2022-08-06T09:31:35;99300.47;;;37.03;24.44
21803;BME280;18591;47.080;22.214;2022-08-06T09:34:03;99301.13;;;37.05;23.98
21803;BME280;18591;47.080;22.214;2022-08-06T09:36:25;99300.47;;;37.03;23.90
21803;BME280;18591;47.080;22.214;2022-08-06T09:38:32;99289.75;;;37.00;23.81
21803;BME280;18591;47.080;22.214;2022-08-06T09:40:34;99291.94;;;36.98;23.98
21803;BME280;18591;47.080;22.214;2022-08-06T09:42:44;99289.50;;;37.01;24.47
21803;BME280;18591;47.080;22.214;2022-08-06T09:45:05;99290.78;;;37.05;24.04
21803;BME280;18591;47.080;22.214;2022-08-06T09:47:21;99287.88;;;37.12;23.93
21803;BME280;18591;47.080;22.214;2022-08-06T09:49:23;99287.31;;;37.22;24.13
21803;BME280;18591;47.080;22.214;2022-08-06T09:51:45;99290.63;;;37.31;24.29
21803;BME280;18591;47.080;22.214;2022-08-06T09:53:56;99294.03;;;37.33;23.40
21803;BME280;18591;47.080;22.214;2022-08-06T09:56:18;99283.44;;;37.35;23.36
21803;BME280;18591;47.080;22.214;2022-08-06T09:58:40;99284.78;;;37.32;22.86
21803;BME280;18591;47.080;22.214;2022-08-06T10:00:42;99285.53;;;37.39;23.38
21803;BME280;18591;47.080;22.214;2022-08-06T10:02:55;99286.16;;;37.41;23.41
21803;BME280;18591;47.080;22.214;2022-08-06T10:05:13;99281.16;;;37.43;22.82
21803;BME280;18591;47.080;22.214;2022-08-06T10:07:29;99284.00;;;37.55;22.98
21803;BME280;18591;47.080;22.214;2022-08-06T10:09:54;99276.34;;;37.62;22.89
21803;BME280;18591;47.080;22.214;2022-08-06T10:11:57;99283.06;;;37.73;22.34
21803;BME280;18591;47.080;22.214;2022-08-06T10:14:00;99280.38;;;37.78;23.01
21803;BME280;18591;47.080;22.214;2022-08-06T10:16:18;99281.97;;;37.86;22.97
21803;BME280;18591;47.080;22.214;2022-08-06T10:18:41;99285.16;;;37.89;22.29
21803;BME280;18591;47.080;22.214;2022-08-06T10:23:17;99272.84;;;38.02;22.46
21803;BME280;18591;47.080;22.214;2022-08-06T10:25:20;99275.66;;;38.02;22.28
21803;BME280;18591;47.080;22.214;2022-08-06T10:27:34;99278.22;;;38.04;22.27
21803;BME280;18591;47.080;22.214;2022-08-06T10:29:44;99271.78;;;38.03;22.32
21803;BME280;18591;47.080;22.214;2022-08-06T10:31:46;99281.66;;;38.06;22.72
21803;BME280;18591;47.080;22.214;2022-08-06T10:34:05;99270.16;;;38.07;22.34
21803;BME280;18591;47.080;22.214;2022-08-06T10:36:12;99272.00;;;38.13;22.22
21803;BME280;18591;47.080;22.214;2022-08-06T10:38:25;99270.53;;;38.11;22.43
21803;BME280;18591;47.080;22.214;2022-08-06T10:40:39;99269.56;;;38.17;22.51
21803;BME280;18591;47.080;22.214;2022-08-06T10:43:02;99273.22;;;38.18;22.63
21803;BME280;18591;47.080;22.214;2022-08-06T10:45:09;99283.09;;;38.20;22.35
21803;BME280;18591;47.080;22.214;2022-08-06T10:47:14;99269.78;;;38.27;22.35
21803;BME280;18591;47.080;22.214;2022-08-06T10:49:37;99278.94;;;38.23;22.48
21803;BME280;18591;47.080;22.214;2022-08-06T10:51:59;99273.09;;;38.24;22.73
21803;BME280;18591;47.080;22.214;2022-08-06T10:54:05;99274.31;;;38.28;22.33
21803;BME280;18591;47.080;22.214;2022-08-06T10:56:24;99272.84;;;38.26;22.41
21803;BME280;18591;47.080;22.214;2022-08-06T10:58:40;99273.81;;;38.20;22.33
21803;BME280;18591;47.080;22.214;2022-08-06T11:00:42;99269.16;;;38.25;22.59
21803;BME280;18591;47.080;22.214;2022-08-06T11:05:36;99264.78;;;38.41;22.66
21803;BME280;18591;47.080;22.214;2022-08-06T11:15:45;99259.88;;;38.60;22.65
21803;BME280;18591;47.080;22.214;2022-08-06T11:17:54;99259.75;;;38.67;22.47
21803;BME280;18591;47.080;22.214;2022-08-06T11:19:56;99259.47;;;38.68;22.61
21803;BME280;18591;47.080;22.214;2022-08-06T11:21:59;99257.63;;;38.74;23.07
21803;BME280;18591;47.080;22.214;2022-08-06T11:24:04;99266.50;;;38.83;22.86
21803;BME280;18591;47.080;22.214;2022-08-06T11:26:08;99257.25;;;38.82;22.73
21803;BME280;18591;47.080;22.214;2022-08-06T11:28:14;99252.50;;;38.71;22.40
21803;BME280;18591;47.080;22.214;2022-08-06T11:30:19;99244.94;;;38.71;22.27
21803;BME280;18591;47.080;22.214;2022-08-06T11:32:51;99248.13;;;38.75;22.31
21803;BME280;18591;47.080;22.214;2022-08-06T11:34:53;99252.47;;;38.83;22.58
21803;BME280;18591;47.080;22.214;2022-08-06T11:36:57;99246.13;;;38.87;22.39
21803;BME280;18591;47.080;22.214;2022-08-06T11:39:25;99239.75;;;38.92;22.73
21803;BME280;18591;47.080;22.214;2022-08-06T11:41:50;99228.28;;;38.93;22.72
21803;BME280;18591;47.080;22.214;2022-08-06T11:46:27;99249.50;;;39.01;22.58
21803;BME280;18591;47.080;22.214;2022-08-06T11:54:58;99242.28;;;39.05;22.18
21803;BME280;18591;47.080;22.214;2022-08-06T11:56:29;99234.28;;;39.14;22.47
21803;BME280;18591;47.080;22.214;2022-08-06T11:58:31;99240.50;;;39.16;22.59
21803;BME280;18591;47.080;22.214;2022-08-06T12:00:54;99225.66;;;39.04;22.37
21803;BME280;18591;47.080;22.214;2022-08-06T12:02:58;99232.75;;;39.06;22.40
21803;BME280;18591;47.080;22.214;2022-08-06T12:05:00;99232.31;;;38.97;22.39
21803;BME280;18591;47.080;22.214;2022-08-06T12:09:35;99232.06;;;38.87;22.87
21803;BME280;18591;47.080;22.214;2022-08-06T12:11:41;99228.03;;;38.95;22.70
21803;BME280;18591;47.080;22.214;2022-08-06T12:13:45;99234.00;;;38.98;22.25
21803;BME280;18591;47.080;22.214;2022-08-06T12:16:25;99227.44;;;38.93;21.93
21803;BME280;18591;47.080;22.214;2022-08-06T12:18:37;99218.59;;;39.01;22.09
21803;BME280;18591;47.080;22.214;2022-08-06T12:20:43;99227.13;;;39.06;22.39
21803;BME280;18591;47.080;22.214;2022-08-06T12:22:49;99222.09;;;39.08;22.14
21803;BME280;18591;47.080;22.214;2022-08-06T12:24:55;99223.66;;;39.16;22.43